Time;durP1;ratioP1;P1;durP2;ratioP2;P2;SDS_P1;SDS_P2;PMS_P1;PMS_P2;Temp;Humidity;BMP_temperature;BMP_pressure;BME280_temperature;BME280_humidity;BME280_pressure;Samples;Min_cycle;Max_cycle;Signal;HPM_P1;HPM_P2
2023/04/04 00:01:13;;;;;;;6.10;3.43;;;;;;;;;;4386455;32;317077;-82
2023/04/04 00:03:40;;;;;;;4.63;3.07;;;;;;;;;;4376642;32;315730;-82
2023/04/04 00:06:07;;;;;;;10.37;2.80;;;;;;;;;;4377423;32;316769;-82
2023/04/04 00:08:34;;;;;;;8.53;4.30;;;;;;;;;;4365385;32;317573;-81
2023/04/04 00:11:05;;;;;;;5.23;3.20;;;;;;;;;;4366662;32;316763;-82
2023/04/04 00:13:31;;;;;;;5.53;2.97;;;;;;;;;;4356741;32;326038;-82
2023/04/04 00:15:58;;;;;;;5.27;2.10;;;;;;;;;;4368248;32;317208;-82
2023/04/04 00:18:25;;;;;;;7.67;4.10;;;;;;;;;;4358228;32;317556;-80
2023/04/04 00:20:52;;;;;;;8.10;3.13;;;;;;;;;;4366838;32;317623;-81
2023/04/04 00:23:18;;;;;;;6.77;2.50;;;;;;;;;;4366216;32;317558;-82
2023/04/04 00:25:49;;;;;;;2.77;1.70;;;;;;;;;;4354972;32;416741;-82
2023/04/04 00:28:17;;;;;;;2.77;1.63;;;;;;;;;;4367857;32;316772;-82
2023/04/04 00:30:44;;;;;;;2.57;1.43;;;;;;;;;;4358002;32;316456;-83
2023/04/04 00:33:11;;;;;;;2.30;1.63;;;;;;;;;;4367803;32;317006;-81
2023/04/04 00:35:38;;;;;;;2.87;1.50;;;;;;;;;;4356871;32;316466;-82
2023/04/04 00:38:05;;;;;;;3.00;1.70;;;;;;;;;;4366814;32;317511;-82
2023/04/04 00:40:32;;;;;;;4.03;2.27;;;;;;;;;;4356772;32;316689;-82
2023/04/04 00:43:00;;;;;;;4.80;2.77;;;;;;;;;;4366216;32;317141;-83
2023/04/04 00:45:29;;;;;;;7.37;3.53;;;;;;;;;;4357745;32;317166;-80
2023/04/04 00:47:56;;;;;;;8.10;4.87;;;;;;;;;;4366347;32;316342;-81
2023/04/04 00:50:22;;;;;;;9.10;6.13;;;;;;;;;;4355290;32;317129;-82
2023/04/04 00:52:49;;;;;;;11.50;7.13;;;;;;;;;;4368247;32;316595;-82
2023/04/04 00:55:16;;;;;;;12.30;5.20;;;;;;;;;;4373286;32;317651;-82
2023/04/04 00:57:43;;;;;;;10.17;4.57;;;;;;;;;;4360013;32;318081;-82
2023/04/04 01:00:11;;;;;;;5.10;3.57;;;;;;;;;;4366199;32;318190;-81
2023/04/04 01:02:39;;;;;;;6.93;3.47;;;;;;;;;;4343411;32;317031;-81
2023/04/04 01:05:07;;;;;;;4.00;2.67;;;;;;;;;;4352341;32;317672;-82
2023/04/04 01:07:35;;;;;;;2.20;2.00;;;;;;;;;;4341689;32;317101;-83
2023/04/04 01:10:02;;;;;;;5.43;2.43;;;;;;;;;;4351312;32;317381;-83
2023/04/04 01:12:29;;;;;;;3.20;2.00;;;;;;;;;;4342655;32;316828;-83
2023/04/04 01:14:56;;;;;;;3.93;2.10;;;;;;;;;;4352666;32;316623;-83
2023/04/04 01:17:24;;;;;;;3.53;2.23;;;;;;;;;;4342725;32;317074;-82
2023/04/04 01:20:02;;;;;;;5.30;2.10;;;;;;;;;;4351930;32;317081;-82
2023/04/04 01:22:31;;;;;;;2.70;1.90;;;;;;;;;;4341453;32;317033;-82
2023/04/04 01:25:00;;;;;;;4.00;2.53;;;;;;;;;;4350826;32;316396;-83
2023/04/04 01:27:28;;;;;;;4.30;2.60;;;;;;;;;;4341178;32;317203;-83
2023/04/04 01:29:55;;;;;;;4.90;2.67;;;;;;;;;;4350921;32;316566;-83
2023/04/04 01:32:33;;;;;;;6.10;4.03;;;;;;;;;;4341361;32;317239;-83
2023/04/04 01:35:13;;;;;;;6.67;3.53;;;;;;;;;;4351264;32;316955;-85
2023/04/04 01:37:49;;;;;;;6.13;3.37;;;;;;;;;;4356167;32;317139;-81
2023/04/04 01:40:21;;;;;;;5.47;3.23;;;;;;;;;;4365038;32;317244;-82
2023/04/04 01:42:51;;;;;;;7.70;3.23;;;;;;;;;;4354179;32;416683;-83
2023/04/04 01:45:17;;;;;;;9.13;4.07;;;;;;;;;;4366912;32;316418;-82
2023/04/04 01:47:44;;;;;;;4.67;3.40;;;;;;;;;;4357092;32;316572;-82
2023/04/04 01:50:11;;;;;;;6.43;4.47;;;;;;;;;;4365279;32;317188;-82
2023/04/04 01:52:38;;;;;;;8.73;4.70;;;;;;;;;;4357087;32;317392;-82
2023/04/04 01:55:07;;;;;;;6.07;4.07;;;;;;;;;;4365930;32;316599;-82
2023/04/04 01:57:34;;;;;;;7.13;4.13;;;;;;;;;;4355382;32;316405;-83
2023/04/04 02:00:02;;;;;;;11.60;3.73;;;;;;;;;;4352502;32;317070;-83
2023/04/04 02:02:29;;;;;;;7.20;3.87;;;;;;;;;;4355535;32;318508;-82
2023/04/04 02:04:56;;;;;;;4.80;2.87;;;;;;;;;;4363995;32;338247;-82
2023/04/04 02:07:23;;;;;;;4.80;3.33;;;;;;;;;;4356815;32;317342;-83
2023/04/04 02:09:49;;;;;;;3.70;2.90;;;;;;;;;;4366360;32;317204;-83
2023/04/04 02:12:16;;;;;;;8.23;3.27;;;;;;;;;;4366357;32;317367;-83
2023/04/04 02:14:44;;;;;;;5.03;3.00;;;;;;;;;;4355723;32;317120;-82
2023/04/04 02:17:12;;;;;;;5.93;2.07;;;;;;;;;;4366464;32;317672;-82
2023/04/04 02:19:39;;;;;;;4.23;3.00;;;;;;;;;;4356354;32;317187;-82
2023/04/04 02:22:06;;;;;;;5.13;2.80;;;;;;;;;;4365116;32;317146;-82
2023/04/04 02:24:33;;;;;;;3.27;2.97;;;;;;;;;;4354483;32;349716;-83
2023/04/04 02:26:59;;;;;;;5.63;3.97;;;;;;;;;;4365930;32;316517;-82
2023/04/04 02:29:26;;;;;;;5.20;3.20;;;;;;;;;;4356690;32;317669;-83
2023/04/04 02:31:53;;;;;;;5.03;3.53;;;;;;;;;;4365139;32;317065;-84
2023/04/04 02:34:21;;;;;;;5.23;3.37;;;;;;;;;;4355275;32;316674;-83
2023/04/04 02:36:48;;;;;;;5.90;3.37;;;;;;;;;;4353487;32;316485;-83
2023/04/04 02:39:15;;;;;;;7.30;3.77;;;;;;;;;;4350114;32;316578;-83
2023/04/04 02:41:42;;;;;;;7.00;4.33;;;;;;;;;;4339521;32;332644;-84
2023/04/04 02:44:09;;;;;;;6.27;3.90;;;;;;;;;;4351296;32;317161;-83
2023/04/04 02:46:35;;;;;;;10.97;5.27;;;;;;;;;;4341099;32;317204;-82
2023/04/04 02:49:02;;;;;;;10.33;5.00;;;;;;;;;;4350850;32;318457;-83
2023/04/04 02:51:32;;;;;;;5.07;3.57;;;;;;;;;;4339862;32;318361;-83
2023/04/04 02:53:59;;;;;;;6.80;3.97;;;;;;;;;;4350449;32;344134;-83
2023/04/04 02:56:26;;;;;;;8.17;3.83;;;;;;;;;;4354764;32;317373;-82
2023/04/04 02:58:53;;;;;;;8.83;4.00;;;;;;;;;;4365363;32;317747;-83
2023/04/04 03:01:20;;;;;;;6.40;4.10;;;;;;;;;;4344978;32;364513;-83
2023/04/04 03:03:47;;;;;;;8.23;4.43;;;;;;;;;;4349897;32;351830;-84
2023/04/04 03:06:14;;;;;;;10.07;5.10;;;;;;;;;;4350807;32;316862;-82
2023/04/04 03:08:42;;;;;;;10.43;4.80;;;;;;;;;;4339953;32;322942;-82
2023/04/04 03:11:09;;;;;;;7.60;4.60;;;;;;;;;;4349450;32;318699;-84
2023/04/04 03:13:36;;;;;;;7.37;5.20;;;;;;;;;;4341330;32;327459;-82
2023/04/04 03:16:05;;;;;;;6.90;4.70;;;;;;;;;;4350804;32;316739;-82
2023/04/04 03:18:33;;;;;;;7.43;4.50;;;;;;;;;;4340376;32;317374;-82
2023/04/04 03:21:00;;;;;;;6.47;3.83;;;;;;;;;;4349666;32;316796;-82
2023/04/04 03:23:27;;;;;;;6.37;4.17;;;;;;;;;;4340361;32;317434;-82
2023/04/04 03:25:55;;;;;;;10.90;6.23;;;;;;;;;;4350829;32;317080;-83
2023/04/04 03:28:22;;;;;;;13.23;7.83;;;;;;;;;;4340145;32;317627;-83
2023/04/04 03:30:49;;;;;;;13.67;8.00;;;;;;;;;;4348778;32;358556;-82
2023/04/04 03:33:16;;;;;;;11.53;5.73;;;;;;;;;;4361649;32;318268;-83
2023/04/04 03:35:42;;;;;;;7.27;5.00;;;;;;;;;;4355561;32;318242;-83
2023/04/04 03:38:09;;;;;;;10.27;4.37;;;;;;;;;;4365569;32;317113;-83
2023/04/04 03:40:36;;;;;;;3.23;2.93;;;;;;;;;;4354969;32;317633;-82
2023/04/04 03:43:06;;;;;;;4.93;3.43;;;;;;;;;;4364661;32;316389;-82
2023/04/04 03:45:34;;;;;;;4.87;2.93;;;;;;;;;;4356454;32;317385;-82
2023/04/04 03:48:01;;;;;;;2.97;2.33;;;;;;;;;;4379201;32;316482;-82
2023/04/04 03:50:28;;;;;;;4.13;2.63;;;;;;;;;;4367618;32;320830;-83
2023/04/04 03:52:57;;;;;;;4.50;3.30;;;;;;;;;;4372312;32;316275;-83
2023/04/04 03:55:23;;;;;;;6.97;3.97;;;;;;;;;;4364772;32;316630;-83
2023/04/04 03:57:51;;;;;;;17.57;9.40;;;;;;;;;;4378003;32;316487;-83
2023/04/04 04:00:19;;;;;;;20.40;12.00;;;;;;;;;;4388349;32;318287;-80
2023/04/04 04:02:46;;;;;;;20.97;12.77;;;;;;;;;;4371553;32;418754;-81
2023/04/04 04:05:13;;;;;;;21.23;12.13;;;;;;;;;;4378658;32;319743;-84
2023/04/04 04:07:43;;;;;;;23.87;13.53;;;;;;;;;;4365240;32;358413;-84
2023/04/04 04:10:10;;;;;;;17.27;11.30;;;;;;;;;;4373145;32;318592;-83
2023/04/04 04:12:37;;;;;;;12.03;7.40;;;;;;;;;;4357452;32;318938;-83
2023/04/04 04:15:05;;;;;;;15.27;8.10;;;;;;;;;;4368400;32;318286;-83
2023/04/04 04:17:33;;;;;;;13.77;9.07;;;;;;;;;;4358599;32;317719;-81
2023/04/04 04:20:00;;;;;;;14.60;8.90;;;;;;;;;;4367712;32;317536;-83
2023/04/04 04:22:26;;;;;;;8.97;6.10;;;;;;;;;;4357985;32;318590;-82
2023/04/04 04:24:53;;;;;;;11.20;7.60;;;;;;;;;;4366799;32;316644;-82
2023/04/04 04:27:20;;;;;;;13.63;7.73;;;;;;;;;;4354388;32;351882;-82
2023/04/04 04:29:47;;;;;;;36.33;17.23;;;;;;;;;;4367518;32;318257;-82
2023/04/04 04:32:16;;;;;;;74.13;35.77;;;;;;;;;;4371339;32;318443;-83
2023/04/04 04:34:44;;;;;;;75.17;38.47;;;;;;;;;;4356117;32;319086;-82
2023/04/04 04:37:11;;;;;;;47.17;23.83;;;;;;;;;;4352509;32;319565;-81
2023/04/04 04:39:38;;;;;;;21.27;15.10;;;;;;;;;;4341709;32;319530;-82
2023/04/04 04:42:06;;;;;;;18.63;14.13;;;;;;;;;;4351377;32;319428;-82
2023/04/04 04:44:32;;;;;;;19.13;13.80;;;;;;;;;;4343927;32;319134;-82
2023/04/04 04:46:59;;;;;;;17.27;12.77;;;;;;;;;;4361763;32;319508;-83
2023/04/04 04:49:26;;;;;;;18.30;13.03;;;;;;;;;;4371788;32;357669;-80
2023/04/04 04:51:54;;;;;;;16.53;13.03;;;;;;;;;;4382723;32;318717;-81
2023/04/04 04:54:21;;;;;;;16.10;10.17;;;;;;;;;;4370323;32;391681;-83
2023/04/04 04:56:48;;;;;;;10.53;8.43;;;;;;;;;;4352416;32;319338;-83
2023/04/04 04:59:15;;;;;;;9.90;8.03;;;;;;;;;;4352201;32;318275;-85
2023/04/04 05:01:41;;;;;;;12.67;8.73;;;;;;;;;;4342071;32;317364;-82
2023/04/04 05:04:09;;;;;;;7.50;6.20;;;;;;;;;;4350168;32;318193;-84
2023/04/04 05:06:36;;;;;;;8.10;6.00;;;;;;;;;;4341805;32;317103;-85
2023/04/04 05:09:05;;;;;;;7.50;5.33;;;;;;;;;;4350503;32;316715;-83
2023/04/04 05:11:32;;;;;;;5.57;4.23;;;;;;;;;;4341387;32;316617;-83
2023/04/04 05:13:59;;;;;;;4.63;4.00;;;;;;;;;;4351074;32;316681;-83
2023/04/04 05:16:25;;;;;;;6.97;3.80;;;;;;;;;;4342292;32;316998;-84
2023/04/04 05:18:52;;;;;;;8.73;6.90;;;;;;;;;;4350231;32;317190;-83
2023/04/04 05:21:19;;;;;;;11.57;6.43;;;;;;;;;;4350459;32;357376;-82
2023/04/04 05:23:47;;;;;;;10.77;5.67;;;;;;;;;;4338566;32;417383;-83
2023/04/04 05:26:15;;;;;;;7.93;5.30;;;;;;;;;;4354094;32;317554;-83
2023/04/04 05:28:42;;;;;;;8.37;4.87;;;;;;;;;;4341551;32;317588;-83
2023/04/04 05:31:08;;;;;;;8.77;5.60;;;;;;;;;;4351008;32;316643;-83
2023/04/04 05:33:35;;;;;;;18.10;11.00;;;;;;;;;;4337684;32;316408;-83
2023/04/04 05:36:02;;;;;;;19.80;10.60;;;;;;;;;;4356106;32;319293;-82
2023/04/04 05:38:29;;;;;;;15.57;10.40;;;;;;;;;;4355870;32;330582;-88
2023/04/04 05:40:56;;;;;;;14.33;9.37;;;;;;;;;;4364518;32;319449;-87
2023/04/04 05:43:24;;;;;;;12.23;8.03;;;;;;;;;;4353126;32;337019;-86
2023/04/04 05:45:51;;;;;;;10.60;7.03;;;;;;;;;;4364422;32;318151;-89
2023/04/04 05:48:18;;;;;;;7.23;5.83;;;;;;;;;;4364125;32;318368;-88
2023/04/04 05:50:46;;;;;;;7.20;4.13;;;;;;;;;;4353212;32;416364;-83
2023/04/04 05:53:13;;;;;;;3.97;3.23;;;;;;;;;;4365185;32;316355;-86
2023/04/04 05:55:39;;;;;;;5.73;3.90;;;;;;;;;;4356516;32;317247;-81
2023/04/04 05:58:06;;;;;;;5.27;4.37;;;;;;;;;;4364979;32;316380;-81
2023/04/04 06:00:34;;;;;;;8.07;5.07;;;;;;;;;;4349993;32;329884;-83
2023/04/04 06:03:01;;;;;;;6.60;4.93;;;;;;;;;;4350080;32;317339;-83
2023/04/04 06:05:28;;;;;;;4.80;4.20;;;;;;;;;;4339153;32;317525;-86
2023/04/04 06:07:55;;;;;;;8.73;4.87;;;;;;;;;;4351246;32;317426;-88
2023/04/04 06:10:22;;;;;;;6.83;4.93;;;;;;;;;;4341440;32;316544;-86
2023/04/04 06:12:48;;;;;;;8.10;5.33;;;;;;;;;;4351058;32;316707;-82
2023/04/04 06:15:16;;;;;;;4.50;3.57;;;;;;;;;;4350076;32;317105;-82
2023/04/04 06:17:45;;;;;;;4.03;3.33;;;;;;;;;;4342092;32;317263;-81
2023/04/04 06:20:12;;;;;;;3.27;2.47;;;;;;;;;;4348531;32;316710;-84
2023/04/04 06:22:38;;;;;;;3.13;2.67;;;;;;;;;;4335704;32;317158;-81
2023/04/04 06:25:09;;;;;;;3.57;2.70;;;;;;;;;;4343478;32;316904;-84
2023/04/04 06:27:36;;;;;;;4.40;3.23;;;;;;;;;;4343820;32;317387;-81
2023/04/04 06:30:02;;;;;;;3.10;2.63;;;;;;;;;;4346986;32;317848;-81
2023/04/04 06:32:32;;;;;;;4.03;2.73;;;;;;;;;;4335919;32;347929;-80
2023/04/04 06:35:00;;;;;;;5.73;3.60;;;;;;;;;;4348345;32;317366;-79
2023/04/04 06:37:27;;;;;;;8.53;4.10;;;;;;;;;;4369313;32;317411;-82
2023/04/04 06:39:54;;;;;;;5.03;3.67;;;;;;;;;;4373564;32;317082;-82
2023/04/04 06:42:21;;;;;;;5.53;3.97;;;;;;;;;;4355672;32;316952;-83
2023/04/04 06:44:48;;;;;;;5.40;3.63;;;;;;;;;;4366243;32;316822;-83
2023/04/04 06:47:14;;;;;;;3.77;3.00;;;;;;;;;;4364333;32;317338;-80
2023/04/04 06:49:41;;;;;;;3.37;2.57;;;;;;;;;;4354698;32;317418;-80
2023/04/04 06:52:09;;;;;;;2.90;2.30;;;;;;;;;;4358565;32;317008;-84
2023/04/04 06:54:36;;;;;;;3.20;2.30;;;;;;;;;;4339895;32;317367;-84
2023/04/04 06:57:03;;;;;;;5.40;3.53;;;;;;;;;;4348883;32;344725;-82
2023/04/04 06:59:30;;;;;;;3.93;3.17;;;;;;;;;;4341049;32;317104;-80
2023/04/04 07:01:57;;;;;;;5.43;3.17;;;;;;;;;;4350428;32;317361;-82
2023/04/04 07:04:25;;;;;;;5.70;3.47;;;;;;;;;;4340708;32;317404;-80
2023/04/04 07:06:52;;;;;;;5.20;3.13;;;;;;;;;;4349217;32;316834;-79
2023/04/04 07:09:21;;;;;;;4.97;2.97;;;;;;;;;;4348685;32;324885;-83
2023/04/04 07:11:47;;;;;;;6.13;3.23;;;;;;;;;;4337586;32;416623;-87
2023/04/04 07:14:14;;;;;;;5.27;3.63;;;;;;;;;;4356422;32;347488;-87
2023/04/04 07:16:42;;;;;;;5.47;3.67;;;;;;;;;;4345804;32;349734;-85
2023/04/04 07:19:09;;;;;;;4.73;2.83;;;;;;;;;;4358543;32;317369;-90
2023/04/04 07:21:35;;;;;;;3.57;2.90;;;;;;;;;;4339739;32;317015;-85
2023/04/04 07:24:02;;;;;;;6.70;3.40;;;;;;;;;;4350939;32;349851;-89
2023/04/04 07:26:30;;;;;;;5.30;2.90;;;;;;;;;;4342625;32;317433;-89
2023/04/04 07:28:57;;;;;;;4.93;3.13;;;;;;;;;;4362201;32;316753;-87
2023/04/04 07:31:24;;;;;;;3.97;2.50;;;;;;;;;;4354415;32;350148;-84
2023/04/04 07:33:53;;;;;;;3.70;3.00;;;;;;;;;;4364312;32;355956;-86
2023/04/04 07:36:21;;;;;;;10.60;4.43;;;;;;;;;;4352280;32;317804;-84
2023/04/04 07:38:48;;;;;;;10.70;4.40;;;;;;;;;;4355528;32;318159;-85
2023/04/04 07:41:15;;;;;;;5.13;3.67;;;;;;;;;;4352077;32;318454;-84
2023/04/04 07:43:43;;;;;;;4.60;3.53;;;;;;;;;;4340485;32;317040;-82
2023/04/04 07:46:10;;;;;;;5.80;3.53;;;;;;;;;;4350485;32;316617;-88
2023/04/04 07:48:37;;;;;;;5.93;3.67;;;;;;;;;;4341354;32;316583;-87
2023/04/04 07:51:04;;;;;;;3.20;2.80;;;;;;;;;;4352959;32;317716;-88
2023/04/04 07:53:31;;;;;;;6.10;3.50;;;;;;;;;;4342100;32;317640;-84
2023/04/04 07:56:04;;;;;;;6.63;4.33;;;;;;;;;;4353169;32;341770;-86
2023/04/04 07:58:31;;;;;;;5.63;3.43;;;;;;;;;;4344408;32;317002;-88
2023/04/04 08:01:00;;;;;;;5.03;3.30;;;;;;;;;;4362717;32;316912;-81
2023/04/04 08:03:26;;;;;;;4.10;3.53;;;;;;;;;;4361883;32;316888;-85
2023/04/04 08:05:53;;;;;;;14.97;6.20;;;;;;;;;;4371686;32;338229;-84
2023/04/04 08:08:20;;;;;;;8.60;4.13;;;;;;;;;;4351791;32;317825;-86
2023/04/04 08:10:48;;;;;;;9.33;4.07;;;;;;;;;;4361176;32;316868;-89
2023/04/04 08:13:14;;;;;;;10.93;4.77;;;;;;;;;;4366956;32;316476;-89
2023/04/04 08:15:42;;;;;;;5.37;3.97;;;;;;;;;;4356281;32;344316;-89
2023/04/04 08:18:10;;;;;;;10.80;6.83;;;;;;;;;;4365753;32;315506;-82
2023/04/04 08:20:37;;;;;;;5.27;3.87;;;;;;;;;;4343200;32;318640;-86
2023/04/04 08:23:04;;;;;;;8.13;3.60;;;;;;;;;;4352394;32;317243;-90
2023/04/04 08:25:30;;;;;;;5.13;4.40;;;;;;;;;;4341084;32;317419;-84
2023/04/04 08:27:57;;;;;;;8.90;4.37;;;;;;;;;;4351782;32;350448;-85
2023/04/04 08:30:24;;;;;;;4.57;4.13;;;;;;;;;;4339523;32;395712;-84
2023/04/04 08:32:51;;;;;;;5.93;4.00;;;;;;;;;;4361311;32;316715;-81
2023/04/04 08:35:19;;;;;;;9.10;5.97;;;;;;;;;;4367660;32;317313;-84
2023/04/04 08:37:46;;;;;;;7.67;4.53;;;;;;;;;;4356814;32;416563;-85
2023/04/04 08:40:14;;;;;;;9.10;4.73;;;;;;;;;;4369661;32;316792;-83
2023/04/04 08:42:43;;;;;;;6.83;5.27;;;;;;;;;;4356567;32;316567;-83
2023/04/04 08:45:11;;;;;;;14.00;10.27;;;;;;;;;;4361647;32;316613;-88
2023/04/04 08:47:39;;;;;;;17.13;9.90;;;;;;;;;;4341883;32;319548;-88
2023/04/04 08:50:08;;;;;;;7.10;4.20;;;;;;;;;;4352332;32;318694;-84
2023/04/04 08:52:38;;;;;;;10.33;7.50;;;;;;;;;;4342478;32;316909;-84
2023/04/04 08:55:08;;;;;;;6.40;4.10;;;;;;;;;;4349921;32;317803;-86
2023/04/04 08:57:35;;;;;;;9.10;4.30;;;;;;;;;;4359524;32;317072;-82
2023/04/04 09:00:04;;;;;;;11.67;7.27;;;;;;;;;;4366229;32;316843;-90
2023/04/04 09:02:37;;;;;;;8.40;5.83;;;;;;;;;;4359247;32;321818;-87
2023/04/04 09:05:07;;;;;;;13.80;5.07;;;;;;;;;;4375256;32;317272;-89
2023/04/04 09:07:36;;;;;;;7.93;5.17;;;;;;;;;;4368555;32;317346;-86
2023/04/04 09:10:05;;;;;;;6.00;3.57;;;;;;;;;;4370754;32;317479;-90
2023/04/04 09:12:33;;;;;;;12.27;5.40;;;;;;;;;;4351855;32;317472;-88
2023/04/04 09:15:00;;;;;;;4.33;2.77;;;;;;;;;;4370185;32;318556;-89
2023/04/04 09:17:27;;;;;;;4.33;3.53;;;;;;;;;;4361082;32;316567;-89
2023/04/04 09:19:54;;;;;;;5.57;2.90;;;;;;;;;;4348646;32;317010;-90
2023/04/04 09:22:21;;;;;;;10.23;5.73;;;;;;;;;;4331303;32;317161;-88
2023/04/04 09:24:50;;;;;;;8.50;4.30;;;;;;;;;;4339928;32;318302;-89
2023/04/04 09:27:18;;;;;;;8.47;5.43;;;;;;;;;;4339055;32;317638;-88
2023/04/04 09:29:45;;;;;;;6.87;4.10;;;;;;;;;;4346516;32;417555;-88
2023/04/04 09:32:15;;;;;;;7.57;4.40;;;;;;;;;;4368597;32;316273;-85
2023/04/04 09:34:43;;;;;;;14.47;8.77;;;;;;;;;;4358042;32;317231;-83
2023/04/04 09:37:14;;;;;;;5.83;3.23;;;;;;;;;;4353638;32;318038;-88
2023/04/04 09:39:42;;;;;;;3.97;3.20;;;;;;;;;;4334638;32;317177;-86
2023/04/04 09:42:11;;;;;;;2.37;2.00;;;;;;;;;;4352523;32;317121;-91
2023/04/04 09:44:38;;;;;;;5.70;2.70;;;;;;;;;;4342871;32;317357;-90
2023/04/04 09:47:24;;;;;;;4.87;2.60;;;;;;;;;;4350056;32;316323;-81
2023/04/04 09:49:51;;;;;;;4.73;3.07;;;;;;;;;;4338899;32;416689;-88
2023/04/04 09:52:19;;;;;;;9.57;3.37;;;;;;;;;;4351299;32;317571;-91
2023/04/04 09:54:55;;;;;;;3.90;3.23;;;;;;;;;;4338933;32;417725;-91
2023/04/04 09:57:24;;;;;;;4.43;3.13;;;;;;;;;;4342038;32;317290;-92
2023/04/04 09:59:51;;;;;;;5.73;3.10;;;;;;;;;;4352908;32;317019;-87
2023/04/04 10:02:18;;;;;;;4.63;2.93;;;;;;;;;;4355047;32;316311;-93
2023/04/04 10:04:45;;;;;;;5.67;3.63;;;;;;;;;;4337439;32;416366;-92
2023/04/04 10:07:13;;;;;;;3.97;3.20;;;;;;;;;;4360593;32;316478;-87
2023/04/04 10:09:40;;;;;;;3.73;3.23;;;;;;;;;;4357673;32;317060;-87
2023/04/04 10:12:11;;;;;;;4.80;3.27;;;;;;;;;;4369505;32;316459;-88
2023/04/04 10:14:39;;;;;;;4.47;3.00;;;;;;;;;;4359723;32;327444;-88
2023/04/04 10:17:10;;;;;;;6.37;3.17;;;;;;;;;;4372356;32;340716;-85
2023/04/04 10:19:37;;;;;;;4.33;2.90;;;;;;;;;;4360194;32;316486;-88
2023/04/04 10:22:05;;;;;;;4.43;2.93;;;;;;;;;;4372396;32;317295;-87
2023/04/04 10:24:32;;;;;;;4.50;3.20;;;;;;;;;;4367977;32;317010;-87
2023/04/04 10:26:59;;;;;;;4.67;3.20;;;;;;;;;;4379658;32;317109;-85
2023/04/04 10:29:26;;;;;;;6.53;3.73;;;;;;;;;;4361541;32;317280;-85
2023/04/04 10:32:05;;;;;;;4.57;3.40;;;;;;;;;;4349256;32;317148;-85
2023/04/04 10:34:39;;;;;;;3.03;2.47;;;;;;;;;;4340316;32;317524;-85
2023/04/04 10:37:08;;;;;;;2.73;2.43;;;;;;;;;;4364147;32;317316;-86
2023/04/04 10:39:39;;;;;;;3.57;2.80;;;;;;;;;;4355896;32;317238;-87
2023/04/04 10:42:06;;;;;;;7.03;3.40;;;;;;;;;;4364937;32;316670;-90
2023/04/04 10:44:38;;;;;;;5.50;3.47;;;;;;;;;;4354875;32;316447;-93
2023/04/04 10:47:14;;;;;;;5.40;2.60;;;;;;;;;;4365698;32;333629;-92
2023/04/04 10:49:43;;;;;;;3.20;2.33;;;;;;;;;;4354624;32;316358;-87
2023/04/04 10:52:11;;;;;;;10.80;3.83;;;;;;;;;;4365154;32;316967;-90
2023/04/04 10:54:39;;;;;;;7.30;4.63;;;;;;;;;;4355817;32;317934;-89
2023/04/04 10:57:06;;;;;;;3.67;3.00;;;;;;;;;;4365904;32;317276;-91
2023/04/04 10:59:32;;;;;;;10.27;2.53;;;;;;;;;;4356535;32;316578;-92
2023/04/04 11:02:00;;;;;;;3.23;1.83;;;;;;;;;;4366664;32;317835;-86
2023/04/04 11:04:41;;;;;;;3.63;2.60;;;;;;;;;;4356143;32;317052;-87
2023/04/04 11:07:13;;;;;;;2.67;2.30;;;;;;;;;;4365995;32;315637;-87
2023/04/04 11:09:54;;;;;;;7.03;3.10;;;;;;;;;;4357921;32;317046;-88
2023/04/04 11:12:30;;;;;;;6.33;4.03;;;;;;;;;;4360195;32;316679;-89
2023/04/04 11:15:09;;;;;;;5.23;3.43;;;;;;;;;;4367845;32;316445;-88
2023/04/04 11:18:05;;;;;;;7.90;4.27;;;;;;;;;;4359140;32;317322;-89
2023/04/04 11:20:37;;;;;;;2.23;1.93;;;;;;;;;;4345762;32;317175;-91
2023/04/04 11:23:09;;;;;;;2.53;2.27;;;;;;;;;;4368658;32;316505;-90
2023/04/04 11:25:40;;;;;;;7.60;3.90;;;;;;;;;;4358585;32;316604;-91
2023/04/04 11:28:13;;;;;;;5.47;3.67;;;;;;;;;;4369348;32;317311;-93
2023/04/04 11:30:47;;;;;;;12.30;6.73;;;;;;;;;;4358955;32;316989;-90
2023/04/04 11:33:14;;;;;;;15.10;6.80;;;;;;;;;;4373244;32;317870;-85
2023/04/04 11:35:47;;;;;;;14.90;9.70;;;;;;;;;;4363062;32;318054;-90
2023/04/04 11:38:15;;;;;;;9.17;6.33;;;;;;;;;;4363322;32;317513;-87
2023/04/04 11:40:52;;;;;;;4.77;3.50;;;;;;;;;;4350148;32;340417;-90
2023/04/04 11:43:20;;;;;;;5.73;3.80;;;;;;;;;;4366286;32;317203;-92
2023/04/04 11:45:47;;;;;;;7.37;3.60;;;;;;;;;;4354999;32;416358;-92
2023/04/04 11:48:16;;;;;;;5.60;3.30;;;;;;;;;;4368582;32;317433;-88
2023/04/04 11:50:48;;;;;;;5.87;4.03;;;;;;;;;;4352800;32;317638;-89
2023/04/04 11:53:16;;;;;;;3.73;2.77;;;;;;;;;;4368447;32;317216;-92
2023/04/04 11:55:46;;;;;;;3.90;2.93;;;;;;;;;;4355513;32;317297;-92
2023/04/04 11:58:16;;;;;;;6.73;4.70;;;;;;;;;;4367810;32;316762;-88
2023/04/04 12:00:43;;;;;;;3.47;2.80;;;;;;;;;;4358998;32;317103;-87
2023/04/04 12:03:11;;;;;;;3.40;2.60;;;;;;;;;;4372333;32;317179;-86
2023/04/04 12:05:38;;;;;;;9.03;4.67;;;;;;;;;;4377590;32;317025;-87
2023/04/04 12:08:11;;;;;;;11.13;5.63;;;;;;;;;;4388864;32;315766;-86
2023/04/04 12:10:39;;;;;;;7.57;5.37;;;;;;;;;;4371950;32;316330;-84
2023/04/04 12:13:07;;;;;;;7.13;5.17;;;;;;;;;;4378390;32;317101;-83
2023/04/04 12:15:35;;;;;;;8.23;6.40;;;;;;;;;;4361080;32;317471;-90
2023/04/04 12:18:02;;;;;;;10.47;7.30;;;;;;;;;;4367387;32;317459;-90
2023/04/04 12:20:31;;;;;;;9.33;5.00;;;;;;;;;;4342738;32;317836;-92
2023/04/04 12:22:57;;;;;;;12.53;7.17;;;;;;;;;;4352933;32;323059;-91
2023/04/04 12:25:32;;;;;;;12.17;6.10;;;;;;;;;;4342034;32;318515;-87
2023/04/04 12:28:02;;;;;;;8.47;5.00;;;;;;;;;;4353164;32;318321;-83
2023/04/04 12:30:29;;;;;;;11.00;6.33;;;;;;;;;;4342314;32;317344;-90
2023/04/04 12:32:56;;;;;;;11.93;7.70;;;;;;;;;;4352129;32;318711;-92
2023/04/04 12:35:23;;;;;;;12.83;9.17;;;;;;;;;;4344457;32;318386;-90
2023/04/04 12:38:01;;;;;;;11.97;9.10;;;;;;;;;;4367637;32;318429;-93
2023/04/04 12:40:37;;;;;;;8.93;6.93;;;;;;;;;;4356936;32;318550;-88
2023/04/04 12:43:09;;;;;;;10.73;9.13;;;;;;;;;;4367571;32;317390;-86
2023/04/04 12:45:39;;;;;;;18.43;10.70;;;;;;;;;;4358101;32;318369;-89
2023/04/04 12:48:14;;;;;;;36.73;21.33;;;;;;;;;;4366764;32;319056;-90
2023/04/04 12:50:52;;;;;;;27.73;16.20;;;;;;;;;;4361814;32;346920;-91
2023/04/04 12:53:22;;;;;;;12.77;7.57;;;;;;;;;;4373191;32;319181;-84
2023/04/04 12:55:52;;;;;;;12.80;8.53;;;;;;;;;;4358910;32;418771;-89
2023/04/04 12:58:21;;;;;;;5.10;4.60;;;;;;;;;;4369035;32;318349;-87
2023/04/04 13:00:50;;;;;;;6.40;4.73;;;;;;;;;;4357708;32;416303;-85
2023/04/04 13:03:17;;;;;;;10.77;5.87;;;;;;;;;;4369220;32;316483;-87
2023/04/04 13:05:44;;;;;;;6.37;4.20;;;;;;;;;;4357484;32;330223;-89
2023/04/04 13:08:14;;;;;;;6.10;3.43;;;;;;;;;;4369166;32;317063;-90
2023/04/04 13:11:00;;;;;;;8.00;5.70;;;;;;;;;;4359721;32;316669;-89
2023/04/04 13:13:32;;;;;;;8.43;6.00;;;;;;;;;;4358865;32;317319;-84
2023/04/04 13:15:59;;;;;;;9.47;7.00;;;;;;;;;;4356120;32;316993;-89
2023/04/04 13:18:31;;;;;;;7.67;5.80;;;;;;;;;;4344802;32;317240;-88
2023/04/04 13:20:58;;;;;;;6.67;4.60;;;;;;;;;;4366279;32;316546;-90
2023/04/04 13:23:25;;;;;;;9.90;5.60;;;;;;;;;;4356145;32;317683;-88
2023/04/04 13:25:52;;;;;;;9.27;5.87;;;;;;;;;;4366335;32;354379;-89
2023/04/04 13:28:20;;;;;;;8.30;5.00;;;;;;;;;;4367774;32;316764;-89
2023/04/04 13:30:47;;;;;;;13.63;9.50;;;;;;;;;;4353773;32;416492;-89
2023/04/04 13:33:14;;;;;;;19.13;10.53;;;;;;;;;;4369241;32;318170;-84
2023/04/04 13:35:42;;;;;;;13.67;6.07;;;;;;;;;;4356024;32;318535;-87
2023/04/04 13:38:09;;;;;;;9.40;4.53;;;;;;;;;;4367338;32;317589;-90
2023/04/04 13:40:36;;;;;;;9.87;6.57;;;;;;;;;;4355697;32;317367;-89
2023/04/04 13:43:03;;;;;;;19.17;6.33;;;;;;;;;;4365904;32;317533;-89
2023/04/04 13:45:33;;;;;;;13.50;7.53;;;;;;;;;;4355537;32;318473;-88
2023/04/04 13:48:00;;;;;;;10.60;6.87;;;;;;;;;;4367069;32;318262;-90
2023/04/04 13:50:27;;;;;;;9.37;5.93;;;;;;;;;;4355454;32;318387;-90
2023/04/04 13:52:55;;;;;;;11.07;5.70;;;;;;;;;;4364904;32;317020;-90
2023/04/04 13:55:22;;;;;;;7.30;4.93;;;;;;;;;;4355269;32;318306;-90
2023/04/04 13:57:49;;;;;;;8.63;5.43;;;;;;;;;;4365641;32;316379;-87
2023/04/04 14:00:17;;;;;;;12.37;7.97;;;;;;;;;;4364682;32;345416;-90
2023/04/04 14:02:45;;;;;;;9.47;6.57;;;;;;;;;;4355020;32;337677;-91
2023/04/04 14:05:12;;;;;;;10.77;7.80;;;;;;;;;;4366545;32;317748;-90
2023/04/04 14:07:39;;;;;;;6.03;5.13;;;;;;;;;;4355406;32;318240;-90
2023/04/04 14:10:10;;;;;;;11.10;7.17;;;;;;;;;;4358177;32;316870;-89
2023/04/04 14:12:36;;;;;;;7.00;5.40;;;;;;;;;;4341956;32;318256;-84
2023/04/04 14:15:04;;;;;;;14.73;10.47;;;;;;;;;;4350848;32;316701;-93
2023/04/04 14:17:31;;;;;;;11.77;7.67;;;;;;;;;;4339802;32;335207;-93
2023/04/04 14:19:59;;;;;;;12.43;8.30;;;;;;;;;;4355861;32;317540;-89
2023/04/04 14:22:26;;;;;;;30.47;14.17;;;;;;;;;;4341644;32;317704;-91
2023/04/04 14:24:53;;;;;;;12.30;8.27;;;;;;;;;;4350105;32;319547;-89
2023/04/04 14:27:20;;;;;;;8.13;6.20;;;;;;;;;;4347607;32;318173;-82
2023/04/04 14:29:47;;;;;;;14.33;8.07;;;;;;;;;;4350421;32;316646;-89
2023/04/04 14:32:14;;;;;;;15.90;7.60;;;;;;;;;;4350467;32;318726;-89